sensor_id;sensor_type;location;lat;lon;timestamp;P1;durP1;ratioP1;P2;durP2;ratioP2
50649;SDS011;36621;60.058;30.346;2023-01-16T00:03:49;3.70;;;2.70;;
50649;SDS011;36621;60.058;30.346;2023-01-16T00:11:23;3.10;;;2.35;;
50649;SDS011;36621;60.058;30.346;2023-01-16T00:18:55;3.08;;;2.15;;
50649;SDS011;36621;60.058;30.346;2023-01-16T00:26:37;2.88;;;2.45;;
50649;SDS011;36621;60.058;30.346;2023-01-16T00:34:34;2.58;;;2.22;;
50649;SDS011;36621;60.058;30.346;2023-01-16T00:42:12;3.13;;;2.15;;
50649;SDS011;36621;60.058;30.346;2023-01-16T00:49:51;2.13;;;1.90;;
50649;SDS011;36621;60.058;30.346;2023-01-16T00:57:24;2.78;;;1.48;;
50649;SDS011;36621;60.058;30.346;2023-01-16T01:05:01;2.00;;;1.65;;
50649;SDS011;36621;60.058;30.346;2023-01-16T01:12:41;2.10;;;1.80;;
50649;SDS011;36621;60.058;30.346;2023-01-16T01:20:16;1.90;;;1.73;;
50649;SDS011;36621;60.058;30.346;2023-01-16T01:27:49;2.13;;;1.70;;
50649;SDS011;36621;60.058;30.346;2023-01-16T01:35:21;2.03;;;1.83;;
50649;SDS011;36621;60.058;30.346;2023-01-16T01:42:53;1.90;;;1.70;;
50649;SDS011;36621;60.058;30.346;2023-01-16T01:50:29;2.05;;;1.52;;
50649;SDS011;36621;60.058;30.346;2023-01-16T01:58:10;2.42;;;1.73;;
50649;SDS011;36621;60.058;30.346;2023-01-16T02:05:49;2.08;;;1.70;;
50649;SDS011;36621;60.058;30.346;2023-01-16T02:13:28;3.03;;;1.67;;
50649;SDS011;36621;60.058;30.346;2023-01-16T02:21:02;2.00;;;1.70;;
50649;SDS011;36621;60.058;30.346;2023-01-16T02:28:56;1.55;;;1.45;;
50649;SDS011;36621;60.058;30.346;2023-01-16T02:37:10;2.10;;;1.90;;
50649;SDS011;36621;60.058;30.346;2023-01-16T02:45:02;2.60;;;1.55;;
50649;SDS011;36621;60.058;30.346;2023-01-16T02:52:51;1.58;;;1.48;;
50649;SDS011;36621;60.058;30.346;2023-01-16T03:00:50;1.50;;;1.40;;
50649;SDS011;36621;60.058;30.346;2023-01-16T03:08:28;2.05;;;1.80;;
50649;SDS011;36621;60.058;30.346;2023-01-16T03:16:13;2.58;;;1.75;;
50649;SDS011;36621;60.058;30.346;2023-01-16T03:24:06;2.08;;;1.75;;
50649;SDS011;36621;60.058;30.346;2023-01-16T03:32:45;2.47;;;1.60;;
50649;SDS011;36621;60.058;30.346;2023-01-16T03:40:43;3.07;;;1.63;;
50649;SDS011;36621;60.058;30.346;2023-01-16T03:49:27;1.70;;;1.60;;
50649;SDS011;36621;60.058;30.346;2023-01-16T03:57:54;3.53;;;1.70;;
50649;SDS011;36621;60.058;30.346;2023-01-16T04:06:12;2.55;;;1.85;;
50649;SDS011;36621;60.058;30.346;2023-01-16T04:15:14;3.63;;;1.90;;
50649;SDS011;36621;60.058;30.346;2023-01-16T04:24:14;3.00;;;2.25;;
50649;SDS011;36621;60.058;30.346;2023-01-16T04:31:59;2.80;;;2.13;;
50649;SDS011;36621;60.058;30.346;2023-01-16T04:39:32;3.40;;;2.55;;
50649;SDS011;36621;60.058;30.346;2023-01-16T04:47:05;6.75;;;3.25;;
50649;SDS011;36621;60.058;30.346;2023-01-16T04:54:37;2.97;;;2.33;;
50649;SDS011;36621;60.058;30.346;2023-01-16T05:02:11;5.22;;;3.13;;
50649;SDS011;36621;60.058;30.346;2023-01-16T05:09:45;4.78;;;2.75;;
50649;SDS011;36621;60.058;30.346;2023-01-16T05:17:18;5.30;;;2.80;;
50649;SDS011;36621;60.058;30.346;2023-01-16T05:24:53;3.58;;;2.78;;
50649;SDS011;36621;60.058;30.346;2023-01-16T05:32:28;6.97;;;3.28;;
50649;SDS011;36621;60.058;30.346;2023-01-16T05:40:00;8.98;;;3.92;;
50649;SDS011;36621;60.058;30.346;2023-01-16T05:47:36;3.70;;;3.13;;
50649;SDS011;36621;60.058;30.346;2023-01-16T05:55:09;5.47;;;3.00;;
50649;SDS011;36621;60.058;30.346;2023-01-16T06:02:48;5.23;;;3.73;;
50649;SDS011;36621;60.058;30.346;2023-01-16T13:14:52;3.63;;;3.20;;
50649;SDS011;36621;60.058;30.346;2023-01-16T13:22:33;6.70;;;4.50;;
50649;SDS011;36621;60.058;30.346;2023-01-16T13:30:12;8.00;;;4.50;;
50649;SDS011;36621;60.058;30.346;2023-01-16T13:47:28;6.28;;;3.65;;
50649;SDS011;36621;60.058;30.346;2023-01-16T13:55:32;4.40;;;3.40;;
50649;SDS011;36621;60.058;30.346;2023-01-16T14:19:26;4.82;;;3.55;;
50649;SDS011;36621;60.058;30.346;2023-01-16T14:27:09;5.32;;;3.53;;
50649;SDS011;36621;60.058;30.346;2023-01-16T14:34:48;7.50;;;3.80;;
50649;SDS011;36621;60.058;30.346;2023-01-16T14:42:27;5.03;;;3.50;;
50649;SDS011;36621;60.058;30.346;2023-01-16T14:50:39;5.80;;;3.92;;
50649;SDS011;36621;60.058;30.346;2023-01-16T14:58:37;7.28;;;4.22;;
50649;SDS011;36621;60.058;30.346;2023-01-16T15:23:44;5.13;;;4.43;;
50649;SDS011;36621;60.058;30.346;2023-01-16T15:31:17;6.63;;;4.10;;
50649;SDS011;36621;60.058;30.346;2023-01-16T15:38:55;6.10;;;4.13;;
50649;SDS011;36621;60.058;30.346;2023-01-16T15:54:30;6.75;;;4.50;;
50649;SDS011;36621;60.058;30.346;2023-01-16T16:28:47;5.93;;;3.75;;
50649;SDS011;36621;60.058;30.346;2023-01-16T17:03:32;6.18;;;4.15;;
50649;SDS011;36621;60.058;30.346;2023-01-16T17:11:24;7.35;;;4.50;;
50649;SDS011;36621;60.058;30.346;2023-01-16T17:19:11;6.95;;;5.05;;
50649;SDS011;36621;60.058;30.346;2023-01-16T17:26:54;10.30;;;5.03;;
50649;SDS011;36621;60.058;30.346;2023-01-16T17:34:41;7.28;;;4.57;;
50649;SDS011;36621;60.058;30.346;2023-01-16T17:43:30;10.10;;;4.53;;
50649;SDS011;36621;60.058;30.346;2023-01-16T17:51:21;7.85;;;4.55;;
50649;SDS011;36621;60.058;30.346;2023-01-16T17:58:55;6.43;;;4.85;;
50649;SDS011;36621;60.058;30.346;2023-01-16T18:06:36;8.23;;;4.65;;
50649;SDS011;36621;60.058;30.346;2023-01-16T18:14:16;9.77;;;4.95;;
50649;SDS011;36621;60.058;30.346;2023-01-16T18:22:20;6.53;;;4.13;;
50649;SDS011;36621;60.058;30.346;2023-01-16T18:29:53;7.40;;;4.30;;
50649;SDS011;36621;60.058;30.346;2023-01-16T18:37:29;7.18;;;4.00;;
50649;SDS011;36621;60.058;30.346;2023-01-16T18:45:03;6.75;;;4.07;;
50649;SDS011;36621;60.058;30.346;2023-01-16T18:52:56;7.72;;;3.75;;
50649;SDS011;36621;60.058;30.346;2023-01-16T19:00:47;5.47;;;3.65;;
50649;SDS011;36621;60.058;30.346;2023-01-16T19:08:38;6.60;;;4.00;;
50649;SDS011;36621;60.058;30.346;2023-01-16T19:16:23;7.20;;;3.85;;
50649;SDS011;36621;60.058;30.346;2023-01-16T19:24:14;7.38;;;4.25;;
50649;SDS011;36621;60.058;30.346;2023-01-16T19:31:47;8.43;;;4.30;;
50649;SDS011;36621;60.058;30.346;2023-01-16T19:39:21;9.00;;;4.68;;
50649;SDS011;36621;60.058;30.346;2023-01-16T19:46:53;4.60;;;3.60;;
50649;SDS011;36621;60.058;30.346;2023-01-16T19:54:26;7.57;;;3.75;;
50649;SDS011;36621;60.058;30.346;2023-01-16T20:02:00;7.07;;;4.30;;
50649;SDS011;36621;60.058;30.346;2023-01-16T20:09:34;7.20;;;3.33;;
50649;SDS011;36621;60.058;30.346;2023-01-16T20:17:07;9.98;;;3.92;;
50649;SDS011;36621;60.058;30.346;2023-01-16T20:24:42;6.30;;;3.90;;
50649;SDS011;36621;60.058;30.346;2023-01-16T20:32:19;9.23;;;4.05;;
50649;SDS011;36621;60.058;30.346;2023-01-16T20:39:53;6.45;;;3.38;;
50649;SDS011;36621;60.058;30.346;2023-01-16T20:47:27;5.75;;;4.28;;
50649;SDS011;36621;60.058;30.346;2023-01-16T20:55:01;7.03;;;3.58;;
50649;SDS011;36621;60.058;30.346;2023-01-16T21:02:37;9.27;;;4.50;;
50649;SDS011;36621;60.058;30.346;2023-01-16T21:10:10;6.63;;;3.53;;
50649;SDS011;36621;60.058;30.346;2023-01-16T21:17:42;7.50;;;3.53;;
50649;SDS011;36621;60.058;30.346;2023-01-16T21:25:32;5.07;;;3.45;;
50649;SDS011;36621;60.058;30.346;2023-01-16T21:33:04;5.03;;;3.45;;
50649;SDS011;36621;60.058;30.346;2023-01-16T21:40:37;8.57;;;3.40;;
50649;SDS011;36621;60.058;30.346;2023-01-16T21:48:09;9.57;;;3.90;;
50649;SDS011;36621;60.058;30.346;2023-01-16T21:55:45;9.05;;;4.00;;
50649;SDS011;36621;60.058;30.346;2023-01-16T22:03:21;8.15;;;3.35;;
50649;SDS011;36621;60.058;30.346;2023-01-16T22:10:56;7.10;;;3.67;;
50649;SDS011;36621;60.058;30.346;2023-01-16T22:18:46;8.55;;;3.40;;
50649;SDS011;36621;60.058;30.346;2023-01-16T22:26:18;4.95;;;3.33;;
50649;SDS011;36621;60.058;30.346;2023-01-16T22:33:50;6.97;;;3.38;;
50649;SDS011;36621;60.058;30.346;2023-01-16T22:41:23;6.28;;;3.40;;
50649;SDS011;36621;60.058;30.346;2023-01-16T22:48:56;7.78;;;3.80;;
50649;SDS011;36621;60.058;30.346;2023-01-16T22:56:30;8.48;;;3.50;;
50649;SDS011;36621;60.058;30.346;2023-01-16T23:04:02;6.90;;;3.38;;
50649;SDS011;36621;60.058;30.346;2023-01-16T23:11:35;9.05;;;3.95;;
50649;SDS011;36621;60.058;30.346;2023-01-16T23:19:08;7.68;;;3.75;;
50649;SDS011;36621;60.058;30.346;2023-01-16T23:26:42;9.45;;;3.97;;
50649;SDS011;36621;60.058;30.346;2023-01-16T23:34:15;5.93;;;4.38;;
50649;SDS011;36621;60.058;30.346;2023-01-16T23:41:49;7.72;;;3.95;;
50649;SDS011;36621;60.058;30.346;2023-01-16T23:49:40;7.18;;;3.88;;
50649;SDS011;36621;60.058;30.346;2023-01-16T23:57:14;8.27;;;4.20;;
